sensor_id;sensor_type;location;lat;lon;timestamp;temperature;humidity
60848;DHT22;46681;47.696;9.140;2022-07-12T00:00:10;20.10;48.40
60848;DHT22;46681;47.696;9.140;2022-07-12T00:02:40;20.00;48.20
60848;DHT22;46681;47.696;9.140;2022-07-12T00:05:09;20.00;48.30
60848;DHT22;46681;47.696;9.140;2022-07-12T00:07:36;20.00;48.30
60848;DHT22;46681;47.696;9.140;2022-07-12T00:10:05;20.00;48.40
60848;DHT22;46681;47.696;9.140;2022-07-12T00:12:34;19.90;48.50
60848;DHT22;46681;47.696;9.140;2022-07-12T00:15:00;19.90;48.50
60848;DHT22;46681;47.696;9.140;2022-07-12T00:17:29;19.90;48.50
60848;DHT22;46681;47.696;9.140;2022-07-12T00:19:58;19.80;48.40
60848;DHT22;46681;47.696;9.140;2022-07-12T00:22:24;19.80;48.60
60848;DHT22;46681;47.696;9.140;2022-07-12T00:24:49;19.80;48.60
60848;DHT22;46681;47.696;9.140;2022-07-12T00:27:15;19.80;49.00
60848;DHT22;46681;47.696;9.140;2022-07-12T00:29:45;19.70;48.50
60848;DHT22;46681;47.696;9.140;2022-07-12T00:32:11;19.70;48.70
60848;DHT22;46681;47.696;9.140;2022-07-12T00:34:37;19.70;48.70
60848;DHT22;46681;47.696;9.140;2022-07-12T00:37:09;19.70;48.80
60848;DHT22;46681;47.696;9.140;2022-07-12T00:39:34;19.70;48.80
60848;DHT22;46681;47.696;9.140;2022-07-12T00:42:01;19.70;48.80
60848;DHT22;46681;47.696;9.140;2022-07-12T00:44:27;19.60;48.80
60848;DHT22;46681;47.696;9.140;2022-07-12T00:46:54;19.60;48.70
60848;DHT22;46681;47.696;9.140;2022-07-12T00:49:20;19.60;48.70
60848;DHT22;46681;47.696;9.140;2022-07-12T00:51:47;19.50;48.80
60848;DHT22;46681;47.696;9.140;2022-07-12T00:54:15;19.50;48.80
60848;DHT22;46681;47.696;9.140;2022-07-12T00:56:46;19.50;48.90
60848;DHT22;46681;47.696;9.140;2022-07-12T00:59:13;19.50;49.00
60848;DHT22;46681;47.696;9.140;2022-07-12T01:01:43;19.40;49.00
60848;DHT22;46681;47.696;9.140;2022-07-12T01:04:10;19.40;49.00
60848;DHT22;46681;47.696;9.140;2022-07-12T01:06:36;19.40;49.10
60848;DHT22;46681;47.696;9.140;2022-07-12T01:09:05;19.30;49.10
60848;DHT22;46681;47.696;9.140;2022-07-12T01:11:31;19.30;49.20
60848;DHT22;46681;47.696;9.140;2022-07-12T01:13:58;19.30;49.30
60848;DHT22;46681;47.696;9.140;2022-07-12T01:16:25;19.30;49.30
60848;DHT22;46681;47.696;9.140;2022-07-12T01:18:53;19.30;49.50
60848;DHT22;46681;47.696;9.140;2022-07-12T01:21:32;19.20;49.40
60848;DHT22;46681;47.696;9.140;2022-07-12T01:24:06;19.20;49.60
60848;DHT22;46681;47.696;9.140;2022-07-12T01:26:41;19.20;49.60
60848;DHT22;46681;47.696;9.140;2022-07-12T01:29:08;19.20;49.70
60848;DHT22;46681;47.696;9.140;2022-07-12T01:31:41;19.10;49.70
60848;DHT22;46681;47.696;9.140;2022-07-12T01:34:13;19.10;49.90
60848;DHT22;46681;47.696;9.140;2022-07-12T01:36:40;19.00;49.90
60848;DHT22;46681;47.696;9.140;2022-07-12T01:39:13;19.00;49.90
60848;DHT22;46681;47.696;9.140;2022-07-12T01:41:40;19.00;50.10
60848;DHT22;46681;47.696;9.140;2022-07-12T01:44:06;19.00;50.10
60848;DHT22;46681;47.696;9.140;2022-07-12T01:46:35;19.00;50.10
60848;DHT22;46681;47.696;9.140;2022-07-12T01:49:04;18.90;50.10
60848;DHT22;46681;47.696;9.140;2022-07-12T01:51:32;18.90;49.90
60848;DHT22;46681;47.696;9.140;2022-07-12T01:53:58;18.90;50.10
60848;DHT22;46681;47.696;9.140;2022-07-12T01:56:28;18.90;50.00
60848;DHT22;46681;47.696;9.140;2022-07-12T01:58:55;18.90;50.10
60848;DHT22;46681;47.696;9.140;2022-07-12T02:01:25;18.80;50.10
60848;DHT22;46681;47.696;9.140;2022-07-12T02:04:02;18.80;50.20
60848;DHT22;46681;47.696;9.140;2022-07-12T02:06:30;18.80;50.10
60848;DHT22;46681;47.696;9.140;2022-07-12T02:09:05;18.80;50.30
60848;DHT22;46681;47.696;9.140;2022-07-12T02:11:31;18.70;50.20
60848;DHT22;46681;47.696;9.140;2022-07-12T02:14:02;18.70;50.40
60848;DHT22;46681;47.696;9.140;2022-07-12T02:16:34;18.70;50.40
60848;DHT22;46681;47.696;9.140;2022-07-12T02:19:05;18.70;50.40
60848;DHT22;46681;47.696;9.140;2022-07-12T02:21:33;18.60;50.50
60848;DHT22;46681;47.696;9.140;2022-07-12T02:24:05;18.60;50.50
60848;DHT22;46681;47.696;9.140;2022-07-12T02:26:35;18.60;50.60
60848;DHT22;46681;47.696;9.140;2022-07-12T02:29:06;18.60;50.60
60848;DHT22;46681;47.696;9.140;2022-07-12T02:31:33;18.60;51.10
60848;DHT22;46681;47.696;9.140;2022-07-12T02:34:06;18.50;50.70
60848;DHT22;46681;47.696;9.140;2022-07-12T02:36:33;18.50;50.70
60848;DHT22;46681;47.696;9.140;2022-07-12T02:39:01;18.50;50.60
60848;DHT22;46681;47.696;9.140;2022-07-12T02:41:27;18.50;50.80
60848;DHT22;46681;47.696;9.140;2022-07-12T02:43:53;18.50;50.80
60848;DHT22;46681;47.696;9.140;2022-07-12T02:46:24;18.40;50.80
60848;DHT22;46681;47.696;9.140;2022-07-12T02:48:57;18.40;50.80
60848;DHT22;46681;47.696;9.140;2022-07-12T02:51:24;18.40;50.90
60848;DHT22;46681;47.696;9.140;2022-07-12T02:53:52;18.40;50.80
60848;DHT22;46681;47.696;9.140;2022-07-12T02:56:18;18.40;50.80
60848;DHT22;46681;47.696;9.140;2022-07-12T02:58:47;18.30;50.80
60848;DHT22;46681;47.696;9.140;2022-07-12T03:01:13;18.30;51.40
60848;DHT22;46681;47.696;9.140;2022-07-12T03:03:41;18.30;51.00
60848;DHT22;46681;47.696;9.140;2022-07-12T03:06:10;18.30;51.10
60848;DHT22;46681;47.696;9.140;2022-07-12T03:08:42;18.30;51.10
60848;DHT22;46681;47.696;9.140;2022-07-12T03:11:11;18.30;51.10
60848;DHT22;46681;47.696;9.140;2022-07-12T03:13:41;18.20;51.60
60848;DHT22;46681;47.696;9.140;2022-07-12T03:16:10;18.20;51.10
60848;DHT22;46681;47.696;9.140;2022-07-12T03:18:42;18.20;51.30
60848;DHT22;46681;47.696;9.140;2022-07-12T03:21:09;18.20;51.30
60848;DHT22;46681;47.696;9.140;2022-07-12T03:23:38;18.10;51.30
60848;DHT22;46681;47.696;9.140;2022-07-12T03:26:09;18.10;51.30
60848;DHT22;46681;47.696;9.140;2022-07-12T03:28:39;18.10;51.40
60848;DHT22;46681;47.696;9.140;2022-07-12T03:31:05;18.10;51.30
60848;DHT22;46681;47.696;9.140;2022-07-12T03:33:31;18.10;51.40
60848;DHT22;46681;47.696;9.140;2022-07-12T03:35:59;18.10;51.40
60848;DHT22;46681;47.696;9.140;2022-07-12T03:38:26;18.10;51.30
60848;DHT22;46681;47.696;9.140;2022-07-12T03:40:53;18.00;51.30
60848;DHT22;46681;47.696;9.140;2022-07-12T03:43:19;18.00;51.40
60848;DHT22;46681;47.696;9.140;2022-07-12T03:45:48;18.00;51.50
60848;DHT22;46681;47.696;9.140;2022-07-12T03:48:15;18.00;51.50
60848;DHT22;46681;47.696;9.140;2022-07-12T03:50:42;18.00;51.50
60848;DHT22;46681;47.696;9.140;2022-07-12T03:53:11;17.90;51.60
60848;DHT22;46681;47.696;9.140;2022-07-12T03:55:42;17.90;51.60
60848;DHT22;46681;47.696;9.140;2022-07-12T03:58:11;17.90;53.30
60848;DHT22;46681;47.696;9.140;2022-07-12T04:00:37;18.00;58.40
60848;DHT22;46681;47.696;9.140;2022-07-12T04:03:04;18.10;58.80
60848;DHT22;46681;47.696;9.140;2022-07-12T04:05:34;18.10;58.20
60848;DHT22;46681;47.696;9.140;2022-07-12T04:08:06;18.20;59.30
60848;DHT22;46681;47.696;9.140;2022-07-12T04:10:33;18.20;59.10
60848;DHT22;46681;47.696;9.140;2022-07-12T04:12:59;18.30;59.00
60848;DHT22;46681;47.696;9.140;2022-07-12T04:15:31;18.30;59.00
60848;DHT22;46681;47.696;9.140;2022-07-12T04:18:10;18.30;58.50
60848;DHT22;46681;47.696;9.140;2022-07-12T04:20:40;18.40;58.00
60848;DHT22;46681;47.696;9.140;2022-07-12T04:23:24;18.40;58.10
60848;DHT22;46681;47.696;9.140;2022-07-12T04:25:51;18.40;58.00
60848;DHT22;46681;47.696;9.140;2022-07-12T04:28:19;18.40;58.00
60848;DHT22;46681;47.696;9.140;2022-07-12T04:30:48;18.40;57.80
60848;DHT22;46681;47.696;9.140;2022-07-12T04:33:23;18.40;57.70
60848;DHT22;46681;47.696;9.140;2022-07-12T04:35:54;18.40;57.70
60848;DHT22;46681;47.696;9.140;2022-07-12T04:38:21;18.40;57.30
60848;DHT22;46681;47.696;9.140;2022-07-12T04:40:47;18.50;57.40
60848;DHT22;46681;47.696;9.140;2022-07-12T04:43:12;18.50;57.70
60848;DHT22;46681;47.696;9.140;2022-07-12T04:45:43;18.50;57.90
60848;DHT22;46681;47.696;9.140;2022-07-12T04:48:14;18.40;57.40
60848;DHT22;46681;47.696;9.140;2022-07-12T04:50:40;18.40;57.00
60848;DHT22;46681;47.696;9.140;2022-07-12T04:53:08;18.40;56.80
60848;DHT22;46681;47.696;9.140;2022-07-12T04:55:38;18.40;56.50
60848;DHT22;46681;47.696;9.140;2022-07-12T04:58:15;18.30;56.40
60848;DHT22;46681;47.696;9.140;2022-07-12T05:00:46;18.30;56.20
60848;DHT22;46681;47.696;9.140;2022-07-12T05:03:26;18.30;56.10
60848;DHT22;46681;47.696;9.140;2022-07-12T05:06:00;18.30;56.40
60848;DHT22;46681;47.696;9.140;2022-07-12T05:08:30;18.20;56.20
60848;DHT22;46681;47.696;9.140;2022-07-12T05:10:57;18.20;57.30
60848;DHT22;46681;47.696;9.140;2022-07-12T05:13:31;18.20;57.30
60848;DHT22;46681;47.696;9.140;2022-07-12T05:15:57;18.20;57.10
60848;DHT22;46681;47.696;9.140;2022-07-12T05:18:23;18.20;56.90
60848;DHT22;46681;47.696;9.140;2022-07-12T05:20:50;18.20;56.80
60848;DHT22;46681;47.696;9.140;2022-07-12T05:23:29;18.20;56.70
60848;DHT22;46681;47.696;9.140;2022-07-12T05:26:08;18.20;56.60
60848;DHT22;46681;47.696;9.140;2022-07-12T05:28:52;18.20;56.50
60848;DHT22;46681;47.696;9.140;2022-07-12T05:31:24;18.20;56.40
60848;DHT22;46681;47.696;9.140;2022-07-12T05:34:04;18.20;56.30
60848;DHT22;46681;47.696;9.140;2022-07-12T05:36:37;18.20;57.50
60848;DHT22;46681;47.696;9.140;2022-07-12T05:39:20;18.20;57.30
60848;DHT22;46681;47.696;9.140;2022-07-12T05:41:56;18.20;57.10
60848;DHT22;46681;47.696;9.140;2022-07-12T05:44:25;18.20;56.90
60848;DHT22;46681;47.696;9.140;2022-07-12T05:46:52;18.20;56.80
60848;DHT22;46681;47.696;9.140;2022-07-12T05:49:18;18.20;56.70
60848;DHT22;46681;47.696;9.140;2022-07-12T05:52:20;18.20;56.60
60848;DHT22;46681;47.696;9.140;2022-07-12T05:54:45;18.20;56.60
60848;DHT22;46681;47.696;9.140;2022-07-12T05:57:16;18.20;56.50
60848;DHT22;46681;47.696;9.140;2022-07-12T05:59:47;18.20;56.40
60848;DHT22;46681;47.696;9.140;2022-07-12T06:02:19;18.20;56.40
60848;DHT22;46681;47.696;9.140;2022-07-12T06:04:45;18.20;56.90
60848;DHT22;46681;47.696;9.140;2022-07-12T06:07:23;18.30;57.10
60848;DHT22;46681;47.696;9.140;2022-07-12T06:09:57;18.30;56.80
60848;DHT22;46681;47.696;9.140;2022-07-12T06:12:25;18.30;56.90
60848;DHT22;46681;47.696;9.140;2022-07-12T06:15:04;18.30;56.70
60848;DHT22;46681;47.696;9.140;2022-07-12T06:17:36;18.30;56.60
60848;DHT22;46681;47.696;9.140;2022-07-12T06:20:05;18.30;56.50
60848;DHT22;46681;47.696;9.140;2022-07-12T06:22:38;18.40;56.50
60848;DHT22;46681;47.696;9.140;2022-07-12T06:25:17;18.40;56.40
60848;DHT22;46681;47.696;9.140;2022-07-12T06:28:09;18.40;56.30
60848;DHT22;46681;47.696;9.140;2022-07-12T06:30:40;18.40;56.20
60848;DHT22;46681;47.696;9.140;2022-07-12T06:33:17;18.40;56.20
60848;DHT22;46681;47.696;9.140;2022-07-12T06:35:46;18.50;56.20
60848;DHT22;46681;47.696;9.140;2022-07-12T06:38:15;18.50;56.10
60848;DHT22;46681;47.696;9.140;2022-07-12T06:40:47;18.50;56.00
60848;DHT22;46681;47.696;9.140;2022-07-12T06:43:16;18.60;55.90
60848;DHT22;46681;47.696;9.140;2022-07-12T06:45:49;18.60;57.00
60848;DHT22;46681;47.696;9.140;2022-07-12T06:48:23;18.70;57.00
60848;DHT22;46681;47.696;9.140;2022-07-12T06:50:57;18.80;56.70
60848;DHT22;46681;47.696;9.140;2022-07-12T06:53:30;18.80;56.40
60848;DHT22;46681;47.696;9.140;2022-07-12T06:55:59;18.90;56.30
60848;DHT22;46681;47.696;9.140;2022-07-12T06:58:47;19.00;56.00
60848;DHT22;46681;47.696;9.140;2022-07-12T07:01:17;19.10;55.90
60848;DHT22;46681;47.696;9.140;2022-07-12T07:04:07;19.20;55.70
60848;DHT22;46681;47.696;9.140;2022-07-12T07:06:42;19.20;55.20
60848;DHT22;46681;47.696;9.140;2022-07-12T07:09:29;19.30;55.30
60848;DHT22;46681;47.696;9.140;2022-07-12T07:12:17;19.40;54.90
60848;DHT22;46681;47.696;9.140;2022-07-12T07:15:01;19.50;54.90
60848;DHT22;46681;47.696;9.140;2022-07-12T07:17:53;19.60;55.30
60848;DHT22;46681;47.696;9.140;2022-07-12T07:20:22;19.70;54.80
60848;DHT22;46681;47.696;9.140;2022-07-12T07:22:58;19.80;54.40
60848;DHT22;46681;47.696;9.140;2022-07-12T07:25:24;19.90;54.10
60848;DHT22;46681;47.696;9.140;2022-07-12T07:28:00;20.10;53.90
60848;DHT22;46681;47.696;9.140;2022-07-12T07:30:33;20.20;53.80
60848;DHT22;46681;47.696;9.140;2022-07-12T07:33:03;20.30;53.50
60848;DHT22;46681;47.696;9.140;2022-07-12T07:35:39;20.40;53.30
60848;DHT22;46681;47.696;9.140;2022-07-12T07:38:12;20.60;53.10
60848;DHT22;46681;47.696;9.140;2022-07-12T07:40:48;20.70;53.00
60848;DHT22;46681;47.696;9.140;2022-07-12T07:43:23;20.80;52.70
60848;DHT22;46681;47.696;9.140;2022-07-12T07:46:20;21.00;52.50
60848;DHT22;46681;47.696;9.140;2022-07-12T07:49:03;21.10;52.30
60848;DHT22;46681;47.696;9.140;2022-07-12T07:52:00;21.30;52.00
60848;DHT22;46681;47.696;9.140;2022-07-12T07:54:37;21.50;52.20
60848;DHT22;46681;47.696;9.140;2022-07-12T07:59:59;21.80;51.20
60848;DHT22;46681;47.696;9.140;2022-07-12T08:02:30;22.00;51.00
60848;DHT22;46681;47.696;9.140;2022-07-12T08:05:07;22.10;50.70
60848;DHT22;46681;47.696;9.140;2022-07-12T08:07:42;22.20;50.30
60848;DHT22;46681;47.696;9.140;2022-07-12T08:10:22;22.40;50.20
60848;DHT22;46681;47.696;9.140;2022-07-12T08:12:59;22.50;50.00
60848;DHT22;46681;47.696;9.140;2022-07-12T08:15:54;22.70;49.70
60848;DHT22;46681;47.696;9.140;2022-07-12T08:18:36;22.80;49.50
60848;DHT22;46681;47.696;9.140;2022-07-12T08:21:07;22.90;49.20
60848;DHT22;46681;47.696;9.140;2022-07-12T08:23:32;23.10;49.10
60848;DHT22;46681;47.696;9.140;2022-07-12T08:26:03;23.20;48.70
60848;DHT22;46681;47.696;9.140;2022-07-12T08:28:34;23.30;48.60
60848;DHT22;46681;47.696;9.140;2022-07-12T08:31:05;23.40;48.10
60848;DHT22;46681;47.696;9.140;2022-07-12T08:33:35;23.50;47.90
60848;DHT22;46681;47.696;9.140;2022-07-12T08:36:07;23.60;47.80
60848;DHT22;46681;47.696;9.140;2022-07-12T08:39:16;23.70;47.40
60848;DHT22;46681;47.696;9.140;2022-07-12T08:42:03;23.90;47.40
60848;DHT22;46681;47.696;9.140;2022-07-12T08:44:39;24.00;47.20
60848;DHT22;46681;47.696;9.140;2022-07-12T08:47:22;24.10;47.00
60848;DHT22;46681;47.696;9.140;2022-07-12T08:50:21;24.20;46.80
60848;DHT22;46681;47.696;9.140;2022-07-12T08:52:54;24.30;46.50
60848;DHT22;46681;47.696;9.140;2022-07-12T08:58:31;24.60;46.10
60848;DHT22;46681;47.696;9.140;2022-07-12T09:00:58;24.70;45.90
60848;DHT22;46681;47.696;9.140;2022-07-12T09:03:34;24.80;45.70
60848;DHT22;46681;47.696;9.140;2022-07-12T09:06:14;24.90;46.00
60848;DHT22;46681;47.696;9.140;2022-07-12T09:08:44;25.00;45.20
60848;DHT22;46681;47.696;9.140;2022-07-12T09:11:21;25.10;45.10
60848;DHT22;46681;47.696;9.140;2022-07-12T09:14:23;25.20;45.10
60848;DHT22;46681;47.696;9.140;2022-07-12T09:17:25;25.40;44.90
60848;DHT22;46681;47.696;9.140;2022-07-12T09:20:06;25.50;44.60
60848;DHT22;46681;47.696;9.140;2022-07-12T09:22:57;25.60;44.70
60848;DHT22;46681;47.696;9.140;2022-07-12T09:25:34;25.70;44.30
60848;DHT22;46681;47.696;9.140;2022-07-12T09:28:15;25.80;44.30
60848;DHT22;46681;47.696;9.140;2022-07-12T09:30:57;25.90;44.10
60848;DHT22;46681;47.696;9.140;2022-07-12T09:33:28;26.00;43.90
60848;DHT22;46681;47.696;9.140;2022-07-12T09:36:00;26.10;44.00
60848;DHT22;46681;47.696;9.140;2022-07-12T09:38:30;26.30;43.80
60848;DHT22;46681;47.696;9.140;2022-07-12T09:41:10;26.30;43.50
60848;DHT22;46681;47.696;9.140;2022-07-12T09:44:00;26.40;43.60
60848;DHT22;46681;47.696;9.140;2022-07-12T09:46:39;26.60;43.60
60848;DHT22;46681;47.696;9.140;2022-07-12T09:49:43;26.60;43.50
60848;DHT22;46681;47.696;9.140;2022-07-12T09:52:40;26.80;43.00
60848;DHT22;46681;47.696;9.140;2022-07-12T09:55:20;26.90;42.70
60848;DHT22;46681;47.696;9.140;2022-07-12T09:58:06;27.00;42.80
60848;DHT22;46681;47.696;9.140;2022-07-12T10:04:29;27.20;42.20
60848;DHT22;46681;47.696;9.140;2022-07-12T10:07:29;27.30;42.40
60848;DHT22;46681;47.696;9.140;2022-07-12T10:10:12;27.50;42.20
60848;DHT22;46681;47.696;9.140;2022-07-12T10:12:43;27.60;42.20
60848;DHT22;46681;47.696;9.140;2022-07-12T10:15:35;27.70;41.80
60848;DHT22;46681;47.696;9.140;2022-07-12T10:18:26;27.80;41.50
60848;DHT22;46681;47.696;9.140;2022-07-12T10:27:33;28.20;41.20
60848;DHT22;46681;47.696;9.140;2022-07-12T10:33:42;28.40;40.90
60848;DHT22;46681;47.696;9.140;2022-07-12T10:36:29;28.50;40.60
60848;DHT22;46681;47.696;9.140;2022-07-12T10:39:24;28.60;40.70
60848;DHT22;46681;47.696;9.140;2022-07-12T10:45:23;28.80;40.10
60848;DHT22;46681;47.696;9.140;2022-07-12T10:51:31;29.30;39.90
60848;DHT22;46681;47.696;9.140;2022-07-12T10:54:42;29.40;39.80
60848;DHT22;46681;47.696;9.140;2022-07-12T10:57:42;29.60;39.90
60848;DHT22;46681;47.696;9.140;2022-07-12T11:00:36;29.80;39.50
60848;DHT22;46681;47.696;9.140;2022-07-12T11:03:31;30.00;39.30
60848;DHT22;46681;47.696;9.140;2022-07-12T11:06:37;30.20;39.00
60848;DHT22;46681;47.696;9.140;2022-07-12T11:09:34;30.30;38.90
60848;DHT22;46681;47.696;9.140;2022-07-12T11:12:03;30.50;38.90
60848;DHT22;46681;47.696;9.140;2022-07-12T11:18:45;30.50;39.00
60848;DHT22;46681;47.696;9.140;2022-07-12T11:21:23;30.70;38.70
60848;DHT22;46681;47.696;9.140;2022-07-12T11:24:31;30.70;38.60
60848;DHT22;46681;47.696;9.140;2022-07-12T11:27:36;30.90;39.00
60848;DHT22;46681;47.696;9.140;2022-07-12T11:30:30;30.90;38.40
60848;DHT22;46681;47.696;9.140;2022-07-12T11:33:17;31.10;38.40
60848;DHT22;46681;47.696;9.140;2022-07-12T11:36:07;31.10;38.20
60848;DHT22;46681;47.696;9.140;2022-07-12T11:39:02;31.10;38.50
60848;DHT22;46681;47.696;9.140;2022-07-12T11:41:54;31.10;38.40
60848;DHT22;46681;47.696;9.140;2022-07-12T11:44:58;31.20;38.40
60848;DHT22;46681;47.696;9.140;2022-07-12T11:47:36;31.30;38.30
60848;DHT22;46681;47.696;9.140;2022-07-12T11:50:24;31.40;38.20
60848;DHT22;46681;47.696;9.140;2022-07-12T11:53:34;31.40;38.10
60848;DHT22;46681;47.696;9.140;2022-07-12T11:56:28;31.50;38.10
60848;DHT22;46681;47.696;9.140;2022-07-12T11:59:31;31.50;38.00
60848;DHT22;46681;47.696;9.140;2022-07-12T12:05:33;31.60;37.90
60848;DHT22;46681;47.696;9.140;2022-07-12T12:08:20;31.80;37.90
60848;DHT22;46681;47.696;9.140;2022-07-12T12:11:03;31.90;37.80
60848;DHT22;46681;47.696;9.140;2022-07-12T12:13:40;31.90;37.60
60848;DHT22;46681;47.696;9.140;2022-07-12T12:16:26;31.90;37.80
60848;DHT22;46681;47.696;9.140;2022-07-12T12:19:11;31.90;37.70
60848;DHT22;46681;47.696;9.140;2022-07-12T12:21:58;32.00;37.50
60848;DHT22;46681;47.696;9.140;2022-07-12T12:25:07;32.10;37.50
60848;DHT22;46681;47.696;9.140;2022-07-12T12:27:40;32.30;37.40
60848;DHT22;46681;47.696;9.140;2022-07-12T12:30:20;32.40;37.00
60848;DHT22;46681;47.696;9.140;2022-07-12T12:36:29;32.40;37.20
60848;DHT22;46681;47.696;9.140;2022-07-12T12:39:28;32.40;37.10
60848;DHT22;46681;47.696;9.140;2022-07-12T12:42:01;32.60;37.20
60848;DHT22;46681;47.696;9.140;2022-07-12T12:44:41;32.70;37.20
60848;DHT22;46681;47.696;9.140;2022-07-12T12:47:20;32.70;37.20
60848;DHT22;46681;47.696;9.140;2022-07-12T12:53:28;32.80;36.80
60848;DHT22;46681;47.696;9.140;2022-07-12T12:56:24;32.90;36.90
60848;DHT22;46681;47.696;9.140;2022-07-12T12:59:20;33.00;36.90
60848;DHT22;46681;47.696;9.140;2022-07-12T13:02:22;33.00;36.60
60848;DHT22;46681;47.696;9.140;2022-07-12T13:10:47;33.10;36.60
60848;DHT22;46681;47.696;9.140;2022-07-12T13:13:42;33.20;36.70
60848;DHT22;46681;47.696;9.140;2022-07-12T13:16:17;33.20;36.50
60848;DHT22;46681;47.696;9.140;2022-07-12T13:18:51;33.20;36.60
60848;DHT22;46681;47.696;9.140;2022-07-12T13:21:25;33.20;36.30
60848;DHT22;46681;47.696;9.140;2022-07-12T13:24:11;33.00;36.50
60848;DHT22;46681;47.696;9.140;2022-07-12T13:27:02;32.70;36.90
60848;DHT22;46681;47.696;9.140;2022-07-12T13:30:06;32.80;37.00
60848;DHT22;46681;47.696;9.140;2022-07-12T13:32:56;33.00;36.80
60848;DHT22;46681;47.696;9.140;2022-07-12T13:35:51;33.20;36.60
60848;DHT22;46681;47.696;9.140;2022-07-12T13:41:25;33.30;36.30
60848;DHT22;46681;47.696;9.140;2022-07-12T13:44:11;33.50;36.20
60848;DHT22;46681;47.696;9.140;2022-07-12T13:46:41;33.50;36.70
60848;DHT22;46681;47.696;9.140;2022-07-12T13:52:26;33.50;36.20
60848;DHT22;46681;47.696;9.140;2022-07-12T13:54:52;33.50;36.00
60848;DHT22;46681;47.696;9.140;2022-07-12T13:57:41;33.50;36.00
60848;DHT22;46681;47.696;9.140;2022-07-12T14:00:27;33.50;36.00
60848;DHT22;46681;47.696;9.140;2022-07-12T14:06:08;33.50;35.90
60848;DHT22;46681;47.696;9.140;2022-07-12T14:08:47;33.40;35.80
60848;DHT22;46681;47.696;9.140;2022-07-12T14:14:29;33.40;34.50
60848;DHT22;46681;47.696;9.140;2022-07-12T14:17:23;33.00;36.00
60848;DHT22;46681;47.696;9.140;2022-07-12T14:20:17;33.00;36.10
60848;DHT22;46681;47.696;9.140;2022-07-12T14:22:59;33.10;36.00
60848;DHT22;46681;47.696;9.140;2022-07-12T14:25:31;33.10;35.70
60848;DHT22;46681;47.696;9.140;2022-07-12T14:28:20;33.10;35.70
60848;DHT22;46681;47.696;9.140;2022-07-12T14:30:58;33.10;35.50
60848;DHT22;46681;47.696;9.140;2022-07-12T14:33:44;33.10;35.40
60848;DHT22;46681;47.696;9.140;2022-07-12T14:36:18;33.10;35.20
60848;DHT22;46681;47.696;9.140;2022-07-12T14:38:52;33.00;35.10
60848;DHT22;46681;47.696;9.140;2022-07-12T14:41:25;33.00;35.20
60848;DHT22;46681;47.696;9.140;2022-07-12T14:44:09;33.00;35.30
60848;DHT22;46681;47.696;9.140;2022-07-12T14:46:59;33.00;35.30
60848;DHT22;46681;47.696;9.140;2022-07-12T14:49:49;32.90;35.30
60848;DHT22;46681;47.696;9.140;2022-07-12T14:52:24;32.90;35.10
60848;DHT22;46681;47.696;9.140;2022-07-12T14:55:14;32.80;34.90
60848;DHT22;46681;47.696;9.140;2022-07-12T14:57:58;32.80;35.10
60848;DHT22;46681;47.696;9.140;2022-07-12T15:00:41;32.80;35.20
60848;DHT22;46681;47.696;9.140;2022-07-12T15:03:14;32.70;34.80
60848;DHT22;46681;47.696;9.140;2022-07-12T15:05:47;32.70;35.00
60848;DHT22;46681;47.696;9.140;2022-07-12T15:08:22;32.70;35.30
60848;DHT22;46681;47.696;9.140;2022-07-12T15:11:02;32.60;35.00
60848;DHT22;46681;47.696;9.140;2022-07-12T15:13:42;32.60;35.10
60848;DHT22;46681;47.696;9.140;2022-07-12T15:16:13;32.50;35.20
60848;DHT22;46681;47.696;9.140;2022-07-12T15:18:48;32.50;34.20
60848;DHT22;46681;47.696;9.140;2022-07-12T15:21:24;32.50;34.70
60848;DHT22;46681;47.696;9.140;2022-07-12T15:24:06;32.40;35.20
60848;DHT22;46681;47.696;9.140;2022-07-12T15:26:39;32.40;35.00
60848;DHT22;46681;47.696;9.140;2022-07-12T15:29:21;32.30;35.20
60848;DHT22;46681;47.696;9.140;2022-07-12T15:32:05;32.30;34.00
60848;DHT22;46681;47.696;9.140;2022-07-12T15:34:48;32.20;33.90
60848;DHT22;46681;47.696;9.140;2022-07-12T15:37:40;32.20;35.20
60848;DHT22;46681;47.696;9.140;2022-07-12T15:40:14;32.10;34.20
60848;DHT22;46681;47.696;9.140;2022-07-12T15:42:56;32.10;34.70
60848;DHT22;46681;47.696;9.140;2022-07-12T15:45:50;32.00;34.40
60848;DHT22;46681;47.696;9.140;2022-07-12T15:48:43;32.00;33.60
60848;DHT22;46681;47.696;9.140;2022-07-12T15:51:48;31.90;34.50
60848;DHT22;46681;47.696;9.140;2022-07-12T15:54:14;31.90;35.00
60848;DHT22;46681;47.696;9.140;2022-07-12T15:56:47;31.80;34.60
60848;DHT22;46681;47.696;9.140;2022-07-12T15:59:25;31.80;35.00
60848;DHT22;46681;47.696;9.140;2022-07-12T16:02:09;31.80;34.80
60848;DHT22;46681;47.696;9.140;2022-07-12T16:04:49;31.70;33.80
60848;DHT22;46681;47.696;9.140;2022-07-12T16:07:24;31.70;33.20
60848;DHT22;46681;47.696;9.140;2022-07-12T16:10:12;31.60;34.70
60848;DHT22;46681;47.696;9.140;2022-07-12T16:12:55;31.40;34.50
60848;DHT22;46681;47.696;9.140;2022-07-12T16:15:36;30.90;35.90
60848;DHT22;46681;47.696;9.140;2022-07-12T16:18:08;30.90;35.80
60848;DHT22;46681;47.696;9.140;2022-07-12T16:20:44;31.00;34.00
60848;DHT22;46681;47.696;9.140;2022-07-12T16:23:15;31.00;34.50
60848;DHT22;46681;47.696;9.140;2022-07-12T16:25:42;31.10;34.60
60848;DHT22;46681;47.696;9.140;2022-07-12T16:28:10;31.10;34.80
60848;DHT22;46681;47.696;9.140;2022-07-12T16:30:55;31.00;34.00
60848;DHT22;46681;47.696;9.140;2022-07-12T16:33:23;31.00;34.40
60848;DHT22;46681;47.696;9.140;2022-07-12T16:36:14;31.00;34.50
60848;DHT22;46681;47.696;9.140;2022-07-12T16:39:23;30.90;33.90
60848;DHT22;46681;47.696;9.140;2022-07-12T16:42:13;30.90;34.70
60848;DHT22;46681;47.696;9.140;2022-07-12T16:44:44;30.80;34.80
60848;DHT22;46681;47.696;9.140;2022-07-12T16:47:28;30.70;34.30
60848;DHT22;46681;47.696;9.140;2022-07-12T16:50:29;30.70;34.50
60848;DHT22;46681;47.696;9.140;2022-07-12T16:53:07;30.60;34.50
60848;DHT22;46681;47.696;9.140;2022-07-12T16:55:56;30.60;34.60
60848;DHT22;46681;47.696;9.140;2022-07-12T16:58:39;30.50;34.30
60848;DHT22;46681;47.696;9.140;2022-07-12T17:01:42;30.40;34.30
60848;DHT22;46681;47.696;9.140;2022-07-12T17:04:52;30.40;34.50
60848;DHT22;46681;47.696;9.140;2022-07-12T17:07:21;30.40;34.70
60848;DHT22;46681;47.696;9.140;2022-07-12T17:09:51;30.30;35.10
60848;DHT22;46681;47.696;9.140;2022-07-12T17:12:27;30.30;34.90
60848;DHT22;46681;47.696;9.140;2022-07-12T17:15:23;30.20;35.10
60848;DHT22;46681;47.696;9.140;2022-07-12T17:17:53;30.10;35.10
60848;DHT22;46681;47.696;9.140;2022-07-12T17:20:32;30.10;35.40
60848;DHT22;46681;47.696;9.140;2022-07-12T17:23:29;30.00;35.40
60848;DHT22;46681;47.696;9.140;2022-07-12T17:29:38;29.80;36.00
60848;DHT22;46681;47.696;9.140;2022-07-12T17:32:26;29.80;35.80
60848;DHT22;46681;47.696;9.140;2022-07-12T17:35:23;29.70;35.80